createdAt,value
2019-01-28T00:00:38.050Z,99.90
2019-01-28T00:03:08.820Z,99.90
2019-01-28T00:05:37.907Z,99.90
2019-01-28T00:08:07.004Z,99.90
2019-01-28T00:10:36.200Z,99.90
2019-01-28T00:13:05.640Z,99.90
2019-01-28T00:15:34.705Z,99.90
2019-01-28T00:18:03.797Z,99.90
2019-01-28T00:20:33.035Z,99.90
2019-01-28T00:23:02.091Z,99.90
2019-01-28T00:25:31.038Z,99.90
2019-01-28T00:27:59.932Z,99.90
2019-01-28T00:30:28.884Z,99.90
2019-01-28T00:32:57.828Z,99.90
2019-01-28T00:35:27.047Z,99.90
2019-01-28T00:37:56.006Z,99.90
2019-01-28T00:40:24.866Z,99.90
2019-01-28T00:42:53.892Z,99.90
2019-01-28T00:45:22.765Z,99.90
2019-01-28T00:47:51.685Z,99.90
2019-01-28T00:50:20.709Z,99.90
2019-01-28T00:52:49.605Z,99.90
2019-01-28T00:55:18.563Z,99.90
2019-01-28T00:57:47.468Z,99.90
2019-01-28T01:00:19.453Z,99.90
2019-01-28T01:02:48.759Z,99.90
2019-01-28T01:05:17.880Z,99.90
2019-01-28T01:07:46.935Z,99.90
2019-01-28T01:10:15.983Z,99.90
2019-01-28T01:12:45.006Z,99.90
2019-01-28T01:15:14.999Z,99.90
2019-01-28T01:17:44.102Z,99.90
2019-01-28T01:20:14.930Z,99.90
2019-01-28T01:22:43.984Z,99.90
2019-01-28T01:25:14.097Z,99.90
2019-01-28T01:27:43.244Z,99.90
2019-01-28T01:30:15.175Z,99.90
2019-01-28T01:32:44.318Z,99.90
2019-01-28T01:35:13.410Z,99.90
2019-01-28T01:37:42.504Z,99.90
2019-01-28T01:40:14.454Z,99.90
2019-01-28T01:42:43.591Z,99.90
2019-01-28T01:45:14.739Z,99.90
2019-01-28T01:47:43.747Z,99.90
2019-01-28T01:50:13.418Z,99.90
2019-01-28T01:52:42.498Z,99.90
2019-01-28T01:55:13.436Z,99.90
2019-01-28T01:57:42.559Z,99.90
2019-01-28T02:00:14.842Z,99.90
2019-01-28T02:02:44.025Z,99.90
2019-01-28T02:05:13.266Z,99.90
2019-01-28T02:07:42.378Z,99.90
2019-01-28T02:10:13.854Z,99.90
2019-01-28T02:12:42.779Z,99.90
2019-01-28T02:15:14.786Z,99.90
2019-01-28T02:17:43.806Z,99.90
2019-01-28T02:20:13.472Z,99.90
2019-01-28T02:22:42.541Z,99.90
2019-01-28T02:25:12.292Z,99.90
2019-01-28T02:27:41.552Z,99.90
2019-01-28T02:30:12.571Z,99.90
2019-01-28T02:32:42.009Z,99.90
2019-01-28T02:35:11.338Z,99.90
2019-01-28T02:37:40.331Z,99.90
2019-01-28T02:40:12.316Z,99.90
2019-01-28T02:42:41.238Z,99.90
2019-01-28T02:45:11.331Z,99.90
2019-01-28T02:47:40.837Z,99.90
2019-01-28T02:50:13.191Z,99.90
2019-01-28T02:52:42.388Z,99.90
2019-01-28T02:55:12.027Z,99.90
2019-01-28T02:57:41.397Z,99.90
2019-01-28T03:00:16.752Z,99.90
2019-01-28T03:02:46.278Z,99.90
2019-01-28T03:05:16.529Z,99.90
2019-01-28T03:07:46.017Z,99.90
2019-01-28T03:10:20.733Z,99.90
2019-01-28T03:12:50.209Z,99.90
2019-01-28T03:15:20.769Z,99.90
2019-01-28T03:17:50.081Z,99.90
2019-01-28T03:20:20.294Z,99.90
2019-01-28T03:22:49.391Z,99.90
2019-01-28T03:25:18.816Z,99.90
2019-01-28T03:27:48.120Z,99.90
2019-01-28T03:30:19.881Z,99.90
2019-01-28T03:32:49.350Z,99.90
2019-01-28T03:35:18.954Z,99.90
2019-01-28T03:37:48.454Z,99.90
2019-01-28T03:40:19.689Z,99.90
2019-01-28T03:42:49.211Z,99.90
2019-01-28T03:45:19.459Z,99.90
2019-01-28T03:47:48.556Z,99.90
2019-01-28T03:50:23.119Z,99.90
2019-01-28T03:52:52.255Z,99.90
2019-01-28T03:55:21.324Z,99.90
2019-01-28T03:57:50.414Z,99.90
2019-01-28T04:00:24.379Z,99.90
2019-01-28T04:02:53.439Z,99.90
2019-01-28T04:05:22.956Z,99.90
2019-01-28T04:07:51.988Z,99.90
2019-01-28T04:10:23.034Z,99.90
2019-01-28T04:12:52.289Z,99.90
2019-01-28T04:15:25.439Z,99.90
2019-01-28T04:17:54.636Z,99.90
2019-01-28T04:20:26.511Z,99.90
2019-01-28T04:22:56.212Z,99.90
2019-01-28T04:25:25.952Z,99.90
2019-01-28T04:27:55.030Z,99.90
2019-01-28T04:30:25.938Z,99.90
2019-01-28T04:32:56.774Z,99.90
2019-01-28T04:35:26.673Z,99.90
2019-01-28T04:37:56.782Z,99.90
2019-01-28T04:40:26.294Z,99.90
2019-01-28T04:42:55.640Z,99.90
2019-01-28T04:45:25.140Z,99.90
2019-01-28T04:47:54.660Z,99.90
2019-01-28T04:50:24.153Z,99.90
2019-01-28T04:52:53.072Z,99.90
2019-01-28T04:55:22.087Z,99.90
2019-01-28T04:57:51.125Z,99.90
2019-01-28T05:00:21.996Z,99.90
2019-01-28T05:02:50.966Z,99.90
2019-01-28T05:05:20.041Z,99.90
2019-01-28T05:07:49.118Z,99.90
2019-01-28T05:10:18.565Z,99.90
2019-01-28T05:12:47.814Z,99.90
2019-01-28T05:15:17.559Z,99.90
2019-01-28T05:17:46.544Z,99.90
2019-01-28T05:20:17.425Z,99.90
2019-01-28T05:22:46.483Z,99.90
2019-01-28T05:25:15.888Z,99.90
2019-01-28T05:27:45.022Z,99.90
2019-01-28T05:30:19.170Z,99.90
2019-01-28T05:32:48.200Z,99.90
2019-01-28T05:35:18.017Z,99.90
2019-01-28T05:37:47.138Z,99.90
2019-01-28T05:40:18.335Z,99.90
2019-01-28T05:42:47.383Z,99.90
2019-01-28T05:45:16.654Z,99.90
2019-01-28T05:47:45.752Z,99.90
2019-01-28T05:50:33.938Z,99.90
2019-01-28T05:53:03.195Z,99.90
2019-01-28T05:55:32.337Z,99.90
2019-01-28T05:58:01.492Z,99.90
2019-01-28T06:00:37.577Z,99.90
2019-01-28T06:03:06.702Z,99.90
2019-01-28T06:05:35.930Z,99.90
2019-01-28T06:08:05.449Z,99.90
2019-01-28T06:10:36.234Z,99.90
2019-01-28T06:13:05.677Z,99.90
2019-01-28T06:15:34.814Z,99.90
2019-01-28T06:18:04.814Z,99.90
2019-01-28T06:20:34.035Z,99.90
2019-01-28T06:23:03.435Z,99.90
2019-01-28T06:25:32.586Z,99.90
2019-01-28T06:28:01.803Z,99.90
2019-01-28T06:30:31.661Z,99.90
2019-01-28T06:33:00.693Z,99.90
2019-01-28T06:35:29.841Z,99.90
2019-01-28T06:37:59.088Z,99.90
2019-01-28T06:40:31.325Z,99.90
2019-01-28T06:43:00.547Z,99.90
2019-01-28T06:45:29.683Z,99.90
2019-01-28T06:47:58.695Z,99.90
2019-01-28T06:50:27.619Z,99.90
2019-01-28T06:52:56.650Z,99.90
2019-01-28T06:55:26.699Z,99.90
2019-01-28T06:57:55.695Z,99.90
2019-01-28T07:00:30.209Z,99.90
2019-01-28T07:02:59.296Z,99.90
2019-01-28T07:05:28.405Z,99.90
2019-01-28T07:07:57.581Z,99.90
2019-01-28T07:10:26.591Z,99.90
2019-01-28T07:12:55.865Z,99.90
2019-01-28T07:15:25.644Z,99.90
2019-01-28T07:17:55.346Z,99.90
2019-01-28T07:20:28.653Z,99.90
2019-01-28T07:22:57.837Z,99.90
2019-01-28T07:25:26.984Z,99.90
2019-01-28T07:27:56.313Z,99.90
2019-01-28T07:30:34.074Z,99.90
2019-01-28T07:33:03.508Z,99.90
2019-01-28T07:35:32.622Z,99.90
2019-01-28T07:38:01.679Z,99.90
2019-01-28T07:40:30.675Z,99.90
2019-01-28T07:42:59.592Z,99.90
2019-01-28T07:45:31.043Z,99.90
2019-01-28T07:48:03.061Z,99.90
2019-01-28T07:50:32.448Z,99.90
2019-01-28T07:53:02.673Z,99.90
2019-01-28T07:55:32.044Z,99.90
2019-01-28T07:58:01.294Z,99.90
2019-01-28T08:00:30.777Z,99.90
2019-01-28T08:03:00.201Z,99.90
2019-01-28T08:05:29.352Z,99.90
2019-01-28T08:07:58.837Z,99.90
2019-01-28T08:10:27.954Z,99.90
2019-01-28T08:12:57.272Z,99.90
2019-01-28T08:15:27.287Z,99.90
2019-01-28T08:17:56.557Z,99.90
2019-01-28T08:20:25.676Z,99.90
2019-01-28T08:22:55.188Z,99.90
2019-01-28T08:25:31.632Z,99.90
2019-01-28T08:28:00.710Z,99.90
2019-01-28T08:30:35.132Z,99.90
2019-01-28T08:33:04.685Z,99.90
2019-01-28T08:35:35.049Z,99.90
2019-01-28T08:38:04.441Z,99.90
2019-01-28T08:40:33.745Z,99.90
2019-01-28T08:43:02.726Z,99.90
2019-01-28T08:45:32.066Z,99.90
2019-01-28T08:48:01.098Z,99.90
2019-01-28T08:50:30.291Z,99.90
2019-01-28T08:52:59.230Z,99.90
2019-01-28T08:55:28.426Z,99.90
2019-01-28T08:57:57.703Z,99.90
2019-01-28T09:00:41.464Z,99.90
2019-01-28T09:03:11.136Z,99.90
2019-01-28T09:05:40.305Z,99.90
2019-01-28T09:08:10.005Z,99.90
2019-01-28T09:10:39.237Z,99.90
2019-01-28T09:13:08.932Z,99.90
2019-01-28T09:15:38.292Z,99.90
2019-01-28T09:18:09.204Z,99.90
2019-01-28T09:20:38.533Z,99.90
2019-01-28T09:23:07.688Z,99.90
2019-01-28T09:25:36.868Z,99.90
2019-01-28T09:28:06.068Z,99.90
2019-01-28T09:30:35.284Z,99.90
2019-01-28T09:33:04.777Z,99.90
2019-01-28T09:35:34.073Z,99.90
2019-01-28T09:38:03.467Z,99.90
2019-01-28T09:40:33.883Z,99.90
2019-01-28T09:43:03.230Z,99.90
2019-01-28T09:45:38.087Z,99.90
2019-01-28T09:48:14.197Z,99.90
2019-01-28T09:50:43.506Z,99.90
2019-01-28T09:53:12.946Z,99.90
2019-01-28T09:55:42.134Z,99.90
2019-01-28T09:58:11.584Z,99.90
2019-01-28T10:00:49.146Z,99.90
2019-01-28T10:03:18.356Z,99.90
2019-01-28T10:05:47.632Z,99.90
2019-01-28T10:08:16.716Z,99.90
2019-01-28T10:10:46.024Z,99.90
2019-01-28T10:13:15.176Z,99.90
2019-01-28T10:15:44.262Z,99.90
2019-01-28T10:18:13.485Z,99.90
2019-01-28T10:20:45.020Z,99.90
2019-01-28T10:23:14.652Z,99.90
2019-01-28T10:25:44.162Z,99.90
2019-01-28T10:28:13.308Z,99.90
2019-01-28T10:30:43.296Z,99.90
2019-01-28T10:33:12.822Z,99.90
2019-01-28T10:35:44.165Z,99.90
2019-01-28T10:38:14.010Z,99.90
2019-01-28T10:40:44.202Z,99.90
2019-01-28T10:43:13.286Z,99.90
2019-01-28T10:45:42.353Z,99.90
2019-01-28T10:48:12.299Z,99.90
2019-01-28T10:50:43.040Z,99.90
2019-01-28T10:53:12.563Z,99.90
2019-01-28T10:55:41.744Z,99.90
2019-01-28T10:58:13.863Z,99.90
2019-01-28T11:00:45.544Z,99.90
2019-01-28T11:03:16.954Z,99.90
2019-01-28T11:05:46.235Z,99.90
2019-01-28T11:08:15.375Z,99.90
2019-01-28T11:10:44.772Z,99.90
2019-01-28T11:13:14.028Z,99.90
2019-01-28T11:15:43.145Z,99.90
2019-01-28T11:18:25.356Z,99.90
2019-01-28T11:20:54.416Z,99.90
2019-01-28T11:23:23.661Z,99.90
2019-01-28T11:25:52.904Z,99.90
2019-01-28T11:28:21.916Z,99.90
2019-01-28T11:30:56.880Z,99.90
2019-01-28T11:33:25.980Z,99.90
2019-01-28T11:35:55.183Z,99.90
2019-01-28T11:38:24.495Z,99.90
2019-01-28T11:40:53.890Z,99.90
2019-01-28T11:43:23.214Z,99.90
2019-01-28T11:46:03.433Z,99.90
2019-01-28T11:48:33.105Z,99.90
2019-01-28T11:51:02.405Z,99.90
2019-01-28T11:53:31.500Z,99.90
2019-01-28T11:56:00.854Z,99.90
2019-01-28T11:58:30.005Z,99.90
2019-01-28T12:01:19.342Z,99.90
2019-01-28T12:03:48.702Z,99.90
2019-01-28T12:06:18.171Z,99.90
2019-01-28T12:08:47.645Z,99.90
2019-01-28T12:11:16.842Z,98.50
2019-01-28T12:13:46.148Z,99.10
2019-01-28T12:16:15.565Z,98.00
2019-01-28T12:18:44.843Z,98.20
2019-01-28T12:21:14.064Z,97.30
2019-01-28T12:23:43.114Z,97.60
2019-01-28T12:26:12.409Z,96.70
2019-01-28T12:28:41.588Z,97.10
2019-01-28T12:31:10.663Z,96.00
2019-01-28T12:33:39.768Z,96.10
2019-01-28T12:36:08.953Z,96.50
2019-01-28T12:38:39.274Z,96.40
2019-01-28T12:41:08.281Z,96.10
2019-01-28T12:43:37.435Z,95.60
2019-01-28T12:46:06.716Z,94.80
2019-01-28T12:48:35.771Z,94.10
2019-01-28T12:51:05.272Z,94.70
2019-01-28T12:53:34.591Z,94.20
2019-01-28T12:56:03.776Z,94.00
2019-01-28T12:58:32.904Z,93.20
2019-01-28T13:01:03.820Z,92.90
2019-01-28T13:03:34.990Z,92.70
2019-01-28T13:06:04.516Z,93.40
2019-01-28T13:08:33.709Z,92.20
2019-01-28T13:11:03.680Z,91.90
2019-01-28T13:13:32.933Z,91.50
2019-01-28T13:16:02.284Z,91.50
2019-01-28T13:18:31.575Z,91.50
2019-01-28T13:21:00.676Z,90.60
2019-01-28T13:23:29.869Z,90.90
2019-01-28T13:25:58.819Z,91.50
2019-01-28T13:28:27.917Z,91.00
2019-01-28T13:30:57.040Z,91.40
2019-01-28T13:33:26.129Z,90.90
2019-01-28T13:35:55.443Z,90.90
2019-01-28T13:38:25.099Z,91.20
2019-01-28T13:40:54.419Z,91.00
2019-01-28T13:43:23.476Z,90.80
2019-01-28T13:45:52.505Z,90.60
2019-01-28T13:48:24.635Z,90.70
2019-01-28T13:50:54.125Z,90.90
2019-01-28T13:53:23.990Z,90.90
2019-01-28T13:55:53.317Z,90.70
2019-01-28T13:58:22.950Z,90.60
2019-01-28T14:00:52.879Z,90.90
2019-01-28T14:03:22.236Z,90.50
2019-01-28T14:05:51.459Z,90.60
2019-01-28T14:08:21.059Z,90.50
2019-01-28T14:10:51.589Z,90.40
2019-01-28T14:13:21.355Z,90.50
2019-01-28T14:16:02.773Z,90.70
2019-01-28T14:18:34.544Z,90.90
2019-01-28T14:21:05.946Z,91.20
2019-01-28T14:23:35.305Z,91.00
2019-01-28T14:26:04.829Z,90.70
2019-01-28T14:28:34.134Z,90.60
2019-01-28T14:31:03.302Z,91.00
2019-01-28T14:33:32.448Z,90.50
2019-01-28T14:36:01.907Z,90.70
2019-01-28T14:38:30.917Z,91.00
2019-01-28T14:41:00.364Z,90.90
2019-01-28T14:43:29.751Z,90.40
2019-01-28T14:46:00.022Z,90.80
2019-01-28T14:48:29.962Z,91.20
2019-01-28T14:50:59.690Z,91.70
2019-01-28T14:53:28.756Z,92.20
2019-01-28T14:55:58.188Z,93.90
2019-01-28T14:58:27.371Z,92.00
2019-01-28T15:00:56.509Z,90.60
2019-01-28T15:03:25.541Z,90.80
2019-01-28T15:05:54.693Z,91.00
2019-01-28T15:08:23.766Z,90.30
2019-01-28T15:10:52.963Z,90.80
2019-01-28T15:13:25.378Z,91.30
2019-01-28T15:15:54.457Z,91.00
2019-01-28T15:18:23.740Z,91.00
2019-01-28T15:20:52.915Z,90.70
2019-01-28T15:23:22.064Z,90.90
2019-01-28T15:25:51.274Z,91.30
2019-01-28T15:28:20.674Z,92.20
2019-01-28T15:30:49.834Z,93.00
2019-01-28T15:33:21.365Z,93.70
2019-01-28T15:35:50.871Z,94.50
2019-01-28T15:38:20.070Z,94.90
2019-01-28T15:40:49.619Z,95.40
2019-01-28T15:43:18.878Z,95.80
2019-01-28T15:45:48.198Z,96.20
2019-01-28T15:48:17.838Z,96.40
2019-01-28T15:50:46.942Z,96.60
2019-01-28T15:53:16.308Z,96.60
2019-01-28T15:55:45.908Z,96.80
2019-01-28T15:58:15.096Z,97.00
2019-01-28T16:00:45.843Z,97.10
2019-01-28T16:03:15.292Z,97.30
2019-01-28T16:05:44.511Z,97.50
2019-01-28T16:08:13.666Z,97.80
2019-01-28T16:10:42.916Z,98.00
2019-01-28T16:13:13.527Z,98.40
2019-01-28T16:15:44.950Z,98.80
2019-01-28T16:18:14.295Z,99.40
2019-01-28T16:20:43.535Z,99.90
2019-01-28T16:23:12.660Z,99.90
2019-01-28T16:25:44.864Z,99.90
2019-01-28T16:28:14.277Z,99.90
2019-01-28T16:30:43.769Z,99.90
2019-01-28T16:33:12.802Z,99.90
2019-01-28T16:35:41.898Z,99.90
2019-01-28T16:38:11.154Z,99.90
2019-01-28T16:40:40.272Z,99.90
2019-01-28T16:43:09.361Z,99.90
2019-01-28T16:45:38.587Z,99.90
2019-01-28T16:48:09.006Z,99.90
2019-01-28T16:50:38.383Z,99.90
2019-01-28T16:53:08.582Z,99.90
2019-01-28T16:55:37.865Z,99.90
2019-01-28T16:58:07.934Z,99.90
2019-01-28T17:00:39.175Z,99.90
2019-01-28T17:03:09.673Z,99.90
2019-01-28T17:05:39.935Z,99.90
2019-01-28T17:08:09.483Z,99.90
2019-01-28T17:10:38.592Z,99.90
2019-01-28T17:13:08.720Z,99.90
2019-01-28T17:15:37.875Z,99.90
2019-01-28T17:18:07.210Z,99.90
2019-01-28T17:20:36.308Z,99.90
2019-01-28T17:23:06.120Z,99.90
2019-01-28T17:25:41.663Z,99.90
2019-01-28T17:28:13.080Z,99.90
2019-01-28T17:30:45.032Z,99.90
2019-01-28T17:33:14.631Z,99.90
2019-01-28T17:35:43.961Z,99.90
2019-01-28T17:38:13.347Z,99.90
2019-01-28T17:40:44.432Z,99.90
2019-01-28T17:43:17.074Z,99.90
2019-01-28T17:45:46.078Z,99.90
2019-01-28T17:48:15.238Z,99.90
2019-01-28T17:50:45.509Z,99.90
2019-01-28T17:53:14.622Z,99.90
2019-01-28T17:55:43.782Z,99.90
2019-01-28T17:58:13.591Z,99.90
2019-01-28T18:00:49.824Z,99.90
2019-01-28T18:03:19.119Z,99.90
2019-01-28T18:05:48.330Z,99.90
2019-01-28T18:08:17.615Z,99.90
2019-01-28T18:10:46.543Z,99.90
2019-01-28T18:13:15.583Z,99.90
2019-01-28T18:15:44.645Z,99.90
2019-01-28T18:18:13.730Z,99.90
2019-01-28T18:20:51.657Z,99.90
2019-01-28T18:23:41.154Z,99.90
2019-01-28T18:26:10.090Z,99.90
2019-01-28T18:28:39.949Z,99.90
2019-01-28T18:31:09.060Z,99.90
2019-01-28T18:33:38.575Z,99.90
2019-01-28T18:36:08.217Z,99.90
2019-01-28T18:38:37.372Z,99.90
2019-01-28T18:41:06.752Z,99.90
2019-01-28T18:43:35.996Z,99.90
2019-01-28T18:46:08.537Z,99.90
2019-01-28T18:48:37.760Z,99.90
2019-01-28T18:51:07.682Z,99.90
2019-01-28T18:53:36.989Z,99.90
2019-01-28T18:56:07.761Z,99.90
2019-01-28T18:58:36.881Z,99.90
2019-01-28T19:01:07.122Z,99.90
2019-01-28T19:03:36.993Z,99.90
2019-01-28T19:06:12.164Z,99.90
2019-01-28T19:09:04.852Z,99.90
2019-01-28T19:11:53.071Z,99.90
2019-01-28T19:14:50.353Z,99.90
2019-01-28T19:17:25.773Z,99.90
2019-01-28T19:20:29.240Z,99.90
2019-01-28T19:22:58.637Z,99.90
2019-01-28T19:25:30.890Z,99.90
2019-01-28T19:28:00.292Z,99.90
2019-01-28T19:30:29.978Z,99.90
2019-01-28T19:33:02.415Z,99.90
2019-01-28T19:35:33.983Z,99.90
2019-01-28T19:38:03.112Z,99.90
2019-01-28T19:40:34.850Z,99.90
2019-01-28T19:43:03.946Z,99.90
2019-01-28T19:45:34.636Z,99.90
2019-01-28T19:48:03.921Z,99.90
2019-01-28T19:50:32.890Z,99.90
2019-01-28T19:53:01.884Z,99.90
2019-01-28T19:55:30.979Z,99.90
2019-01-28T19:58:01.012Z,99.90
2019-01-28T20:00:30.383Z,99.90
2019-01-28T20:03:01.670Z,99.90
2019-01-28T20:05:30.844Z,99.90
2019-01-28T20:07:59.975Z,99.90
2019-01-28T20:10:28.869Z,99.90
2019-01-28T20:12:58.426Z,99.90
2019-01-28T20:15:27.920Z,99.90
2019-01-28T20:17:57.248Z,99.90
2019-01-28T20:20:26.522Z,99.90
2019-01-28T20:22:55.873Z,99.90
2019-01-28T20:25:25.363Z,99.90
2019-01-28T20:27:55.031Z,99.90
2019-01-28T20:30:26.442Z,99.90
2019-01-28T20:32:55.578Z,99.90
2019-01-28T20:35:24.630Z,99.90
2019-01-28T20:37:54.204Z,99.90
2019-01-28T20:40:23.485Z,99.90
2019-01-28T20:42:52.936Z,99.90
2019-01-28T20:45:23.294Z,99.90
2019-01-28T20:47:52.671Z,99.90
2019-01-28T20:50:24.191Z,99.90
2019-01-28T20:52:53.835Z,99.90
2019-01-28T20:55:23.729Z,99.90
2019-01-28T20:57:52.854Z,99.90
2019-01-28T21:00:26.653Z,99.90
2019-01-28T21:02:56.255Z,99.90
2019-01-28T21:05:27.526Z,99.90
2019-01-28T21:07:57.033Z,99.90
2019-01-28T21:10:26.413Z,99.90
2019-01-28T21:12:56.015Z,99.90
2019-01-28T21:15:26.354Z,99.90
2019-01-28T21:17:55.579Z,99.90
2019-01-28T21:20:24.783Z,99.90
2019-01-28T21:22:53.797Z,99.90
2019-01-28T21:25:24.227Z,99.90
2019-01-28T21:27:53.969Z,99.90
2019-01-28T21:30:33.503Z,99.90
2019-01-28T21:33:02.764Z,99.90
2019-01-28T21:35:49.733Z,99.90
2019-01-28T21:38:24.087Z,99.90
2019-01-28T21:40:53.374Z,99.90
2019-01-28T21:43:26.578Z,99.90
2019-01-28T21:46:00.561Z,99.90
2019-01-28T21:48:29.890Z,99.90
2019-01-28T21:50:59.606Z,99.90
2019-01-28T21:53:28.818Z,99.90
2019-01-28T21:55:59.258Z,99.90
2019-01-28T21:58:28.544Z,99.90
2019-01-28T22:00:57.778Z,99.90
2019-01-28T22:03:27.110Z,99.90
2019-01-28T22:05:59.612Z,99.90
2019-01-28T22:08:28.725Z,99.90
2019-01-28T22:10:57.827Z,99.90
2019-01-28T22:13:27.025Z,99.90
2019-01-28T22:15:56.178Z,99.90
2019-01-28T22:18:27.037Z,99.90
2019-01-28T22:20:56.353Z,99.90
2019-01-28T22:23:25.539Z,99.90
2019-01-28T22:25:54.569Z,99.90
2019-01-28T22:28:25.330Z,99.90
2019-01-28T22:30:54.437Z,99.90
2019-01-28T22:33:23.530Z,99.90
2019-01-28T22:35:53.857Z,99.90
2019-01-28T22:38:23.050Z,99.90
2019-01-28T22:40:52.403Z,99.90
2019-01-28T22:43:21.757Z,99.90
2019-01-28T22:45:50.872Z,99.90
2019-01-28T22:48:19.945Z,99.90
2019-01-28T22:50:48.961Z,99.90
2019-01-28T22:53:18.231Z,99.90
2019-01-28T22:55:47.336Z,99.90
2019-01-28T22:58:16.494Z,99.90
2019-01-28T23:00:58.888Z,99.90
2019-01-28T23:03:47.701Z,99.90
2019-01-28T23:06:16.653Z,99.90
2019-01-28T23:08:45.548Z,99.90
2019-01-28T23:11:14.572Z,99.90
2019-01-28T23:13:43.624Z,99.90
2019-01-28T23:16:12.703Z,99.90
2019-01-28T23:18:41.665Z,99.90
2019-01-28T23:21:10.742Z,99.90
2019-01-28T23:23:39.961Z,99.90
2019-01-28T23:26:09.200Z,99.90
2019-01-28T23:28:38.240Z,99.90
2019-01-28T23:31:07.721Z,99.90
2019-01-28T23:33:37.155Z,99.90
2019-01-28T23:36:06.499Z,99.90
2019-01-28T23:38:35.617Z,99.90
2019-01-28T23:41:05.637Z,99.90
2019-01-28T23:43:34.693Z,99.90
2019-01-28T23:46:04.173Z,99.90
2019-01-28T23:48:34.529Z,99.90
2019-01-28T23:51:03.505Z,99.90
2019-01-28T23:53:32.423Z,99.90
2019-01-28T23:56:01.654Z,99.90
2019-01-28T23:58:30.564Z,99.90
